sensor_id;sensor_type;location;lat;lon;timestamp;pressure;altitude;pressure_sealevel;temperature;humidity
82305;BME280;71914;47.382;8.168;2024-03-17T00:00:22;97503.31;;;6.48;98.58
82305;BME280;71914;47.382;8.168;2024-03-17T00:02:48;97493.72;;;6.48;98.13
82305;BME280;71914;47.382;8.168;2024-03-17T00:05:14;97504.06;;;6.50;97.95
82305;BME280;71914;47.382;8.168;2024-03-17T00:07:40;97496.31;;;6.48;98.21
82305;BME280;71914;47.382;8.168;2024-03-17T00:10:05;97493.09;;;6.45;97.68
82305;BME280;71914;47.382;8.168;2024-03-17T00:12:35;97490.66;;;6.42;97.89
82305;BME280;71914;47.382;8.168;2024-03-17T00:15:01;97495.47;;;6.34;97.92
82305;BME280;71914;47.382;8.168;2024-03-17T00:17:26;97501.50;;;6.34;98.19
82305;BME280;71914;47.382;8.168;2024-03-17T00:19:51;97496.25;;;6.36;98.31
82305;BME280;71914;47.382;8.168;2024-03-17T00:22:17;97494.72;;;6.31;98.17
82305;BME280;71914;47.382;8.168;2024-03-17T00:24:43;97489.72;;;6.28;97.95
82305;BME280;71914;47.382;8.168;2024-03-17T00:27:09;97492.78;;;6.21;97.63
82305;BME280;71914;47.382;8.168;2024-03-17T00:29:35;97492.19;;;6.15;98.05
82305;BME280;71914;47.382;8.168;2024-03-17T00:32:00;97493.13;;;6.14;98.49
82305;BME280;71914;47.382;8.168;2024-03-17T00:34:26;97490.34;;;6.18;98.49
82305;BME280;71914;47.382;8.168;2024-03-17T00:36:51;97494.66;;;6.19;98.57
82305;BME280;71914;47.382;8.168;2024-03-17T00:39:17;97480.69;;;6.20;98.82
82305;BME280;71914;47.382;8.168;2024-03-17T00:41:43;97480.97;;;6.15;98.31
82305;BME280;71914;47.382;8.168;2024-03-17T00:44:09;97480.41;;;6.10;98.52
82305;BME280;71914;47.382;8.168;2024-03-17T00:46:34;97482.81;;;6.13;99.19
82305;BME280;71914;47.382;8.168;2024-03-17T00:48:59;97477.44;;;6.16;99.33
82305;BME280;71914;47.382;8.168;2024-03-17T00:51:25;97472.88;;;6.20;98.97
82305;BME280;71914;47.382;8.168;2024-03-17T00:53:51;97469.91;;;6.26;99.30
82305;BME280;71914;47.382;8.168;2024-03-17T00:56:16;97463.22;;;6.22;98.84
82305;BME280;71914;47.382;8.168;2024-03-17T00:58:42;97464.03;;;6.22;99.11
82305;BME280;71914;47.382;8.168;2024-03-17T01:01:09;97453.56;;;6.24;99.52
82305;BME280;71914;47.382;8.168;2024-03-17T01:03:35;97454.50;;;6.23;99.08
82305;BME280;71914;47.382;8.168;2024-03-17T01:06:03;97451.88;;;6.23;99.17
82305;BME280;71914;47.382;8.168;2024-03-17T01:08:30;97441.47;;;6.23;99.21
82305;BME280;71914;47.382;8.168;2024-03-17T01:10:55;97441.94;;;6.29;99.55
82305;BME280;71914;47.382;8.168;2024-03-17T01:13:20;97438.22;;;6.34;99.72
82305;BME280;71914;47.382;8.168;2024-03-17T01:15:51;97437.38;;;6.33;99.39
82305;BME280;71914;47.382;8.168;2024-03-17T01:18:17;97445.00;;;6.36;99.39
82305;BME280;71914;47.382;8.168;2024-03-17T01:20:42;97436.91;;;6.41;99.17
82305;BME280;71914;47.382;8.168;2024-03-17T01:23:08;97440.25;;;6.43;99.16
82305;BME280;71914;47.382;8.168;2024-03-17T01:25:34;97446.22;;;6.45;99.22
82305;BME280;71914;47.382;8.168;2024-03-17T01:28:05;97434.03;;;6.45;99.04
82305;BME280;71914;47.382;8.168;2024-03-17T01:30:31;97437.28;;;6.49;98.82
82305;BME280;71914;47.382;8.168;2024-03-17T01:32:58;97426.00;;;6.48;98.40
82305;BME280;71914;47.382;8.168;2024-03-17T01:35:25;97422.13;;;6.41;97.46
82305;BME280;71914;47.382;8.168;2024-03-17T01:37:50;97419.31;;;6.44;98.08
82305;BME280;71914;47.382;8.168;2024-03-17T01:40:16;97426.22;;;6.31;97.39
82305;BME280;71914;47.382;8.168;2024-03-17T01:42:41;97421.47;;;6.23;97.61
82305;BME280;71914;47.382;8.168;2024-03-17T01:45:31;97418.97;;;6.22;97.76
82305;BME280;71914;47.382;8.168;2024-03-17T01:47:58;97418.22;;;6.20;98.39
82305;BME280;71914;47.382;8.168;2024-03-17T01:50:36;97413.56;;;6.25;99.33
82305;BME280;71914;47.382;8.168;2024-03-17T01:53:03;97407.81;;;6.34;99.59
82305;BME280;71914;47.382;8.168;2024-03-17T01:55:33;97405.19;;;6.34;100.00
82305;BME280;71914;47.382;8.168;2024-03-17T01:58:00;97403.16;;;6.39;100.00
82305;BME280;71914;47.382;8.168;2024-03-17T02:00:27;97406.31;;;6.44;99.72
82305;BME280;71914;47.382;8.168;2024-03-17T02:02:54;97400.72;;;6.51;98.86
82305;BME280;71914;47.382;8.168;2024-03-17T02:05:19;97399.25;;;6.46;99.19
82305;BME280;71914;47.382;8.168;2024-03-17T02:07:44;97399.25;;;6.46;98.90
82305;BME280;71914;47.382;8.168;2024-03-17T02:10:10;97394.53;;;6.39;98.50
82305;BME280;71914;47.382;8.168;2024-03-17T02:12:35;97393.88;;;6.35;98.64
82305;BME280;71914;47.382;8.168;2024-03-17T02:15:02;97399.06;;;6.35;98.89
82305;BME280;71914;47.382;8.168;2024-03-17T02:17:31;97389.59;;;6.34;98.87
82305;BME280;71914;47.382;8.168;2024-03-17T02:19:57;97388.75;;;6.34;98.64
82305;BME280;71914;47.382;8.168;2024-03-17T02:22:22;97391.72;;;6.27;98.69
82305;BME280;71914;47.382;8.168;2024-03-17T02:24:47;97383.28;;;6.24;98.41
82305;BME280;71914;47.382;8.168;2024-03-17T02:27:13;97382.81;;;6.17;98.12
82305;BME280;71914;47.382;8.168;2024-03-17T02:29:39;97382.09;;;6.15;98.41
82305;BME280;71914;47.382;8.168;2024-03-17T02:32:05;97388.41;;;6.11;98.30
82305;BME280;71914;47.382;8.168;2024-03-17T02:34:36;97390.06;;;6.12;98.92
82305;BME280;71914;47.382;8.168;2024-03-17T02:37:02;97383.31;;;6.09;98.42
82305;BME280;71914;47.382;8.168;2024-03-17T02:39:29;97379.75;;;6.10;98.42
82305;BME280;71914;47.382;8.168;2024-03-17T02:42:04;97386.63;;;6.11;98.71
82305;BME280;71914;47.382;8.168;2024-03-17T02:44:31;97377.34;;;6.07;98.44
82305;BME280;71914;47.382;8.168;2024-03-17T02:47:00;97375.38;;;5.96;98.39
82305;BME280;71914;47.382;8.168;2024-03-17T02:49:26;97371.09;;;5.95;98.42
82305;BME280;71914;47.382;8.168;2024-03-17T02:51:55;97365.13;;;5.93;98.62
82305;BME280;71914;47.382;8.168;2024-03-17T02:54:21;97364.00;;;5.97;99.16
82305;BME280;71914;47.382;8.168;2024-03-17T03:03:33;97353.78;;;5.94;98.60
82305;BME280;71914;47.382;8.168;2024-03-17T03:06:00;97349.81;;;5.89;98.65
82305;BME280;71914;47.382;8.168;2024-03-17T03:08:41;97350.06;;;5.84;98.56
82305;BME280;71914;47.382;8.168;2024-03-17T03:11:08;97352.88;;;5.81;98.80
82305;BME280;71914;47.382;8.168;2024-03-17T03:13:37;97350.47;;;5.78;98.89
82305;BME280;71914;47.382;8.168;2024-03-17T03:16:05;97349.34;;;5.68;98.61
82305;BME280;71914;47.382;8.168;2024-03-17T03:18:31;97344.88;;;5.70;98.65
82305;BME280;71914;47.382;8.168;2024-03-17T03:20:56;97345.81;;;5.69;98.59
82305;BME280;71914;47.382;8.168;2024-03-17T03:23:22;97355.47;;;5.67;98.94
82305;BME280;71914;47.382;8.168;2024-03-17T03:25:47;97347.75;;;5.65;99.42
82305;BME280;71914;47.382;8.168;2024-03-17T03:28:13;97345.16;;;5.65;99.17
82305;BME280;71914;47.382;8.168;2024-03-17T03:30:38;97344.22;;;5.66;98.88
82305;BME280;71914;47.382;8.168;2024-03-17T03:33:05;97352.75;;;5.68;98.92
82305;BME280;71914;47.382;8.168;2024-03-17T03:35:31;97351.19;;;5.65;99.04
82305;BME280;71914;47.382;8.168;2024-03-17T03:37:56;97353.78;;;5.65;98.81
82305;BME280;71914;47.382;8.168;2024-03-17T03:40:22;97350.53;;;5.62;99.00
82305;BME280;71914;47.382;8.168;2024-03-17T03:42:48;97347.28;;;5.58;98.62
82305;BME280;71914;47.382;8.168;2024-03-17T03:45:13;97346.63;;;5.55;98.66
82305;BME280;71914;47.382;8.168;2024-03-17T03:47:42;97346.34;;;5.59;98.94
82305;BME280;71914;47.382;8.168;2024-03-17T03:50:11;97347.34;;;5.57;97.51
82305;BME280;71914;47.382;8.168;2024-03-17T03:52:37;97343.25;;;5.38;95.03
82305;BME280;71914;47.382;8.168;2024-03-17T03:55:04;97351.81;;;5.10;95.02
82305;BME280;71914;47.382;8.168;2024-03-17T03:57:31;97350.69;;;4.84;96.91
82305;BME280;71914;47.382;8.168;2024-03-17T03:59:57;97356.13;;;4.79;99.81
82305;BME280;71914;47.382;8.168;2024-03-17T04:02:22;97356.88;;;4.97;100.00
82305;BME280;71914;47.382;8.168;2024-03-17T04:04:48;97349.88;;;5.13;100.00
82305;BME280;71914;47.382;8.168;2024-03-17T04:07:13;97346.81;;;5.21;100.00
82305;BME280;71914;47.382;8.168;2024-03-17T04:09:39;97343.16;;;5.25;100.00
82305;BME280;71914;47.382;8.168;2024-03-17T04:12:04;97335.25;;;5.27;100.00
82305;BME280;71914;47.382;8.168;2024-03-17T04:14:30;97344.97;;;5.23;99.12
82305;BME280;71914;47.382;8.168;2024-03-17T04:16:56;97341.06;;;5.16;98.83
82305;BME280;71914;47.382;8.168;2024-03-17T04:19:22;97341.34;;;5.11;98.77
82305;BME280;71914;47.382;8.168;2024-03-17T04:21:47;97344.84;;;5.10;98.62
82305;BME280;71914;47.382;8.168;2024-03-17T04:24:13;97327.94;;;5.03;98.29
82305;BME280;71914;47.382;8.168;2024-03-17T04:26:38;97339.25;;;5.02;98.68
82305;BME280;71914;47.382;8.168;2024-03-17T04:29:04;97338.19;;;4.90;98.51
82305;BME280;71914;47.382;8.168;2024-03-17T04:31:31;97341.56;;;4.76;98.03
82305;BME280;71914;47.382;8.168;2024-03-17T04:33:56;97340.97;;;4.71;98.69
82305;BME280;71914;47.382;8.168;2024-03-17T04:36:22;97338.47;;;4.70;99.22
82305;BME280;71914;47.382;8.168;2024-03-17T04:38:47;97344.44;;;4.72;99.33
82305;BME280;71914;47.382;8.168;2024-03-17T04:41:16;97346.94;;;4.73;99.52
82305;BME280;71914;47.382;8.168;2024-03-17T04:43:42;97344.53;;;4.70;99.12
82305;BME280;71914;47.382;8.168;2024-03-17T04:46:07;97353.03;;;4.72;99.24
82305;BME280;71914;47.382;8.168;2024-03-17T04:48:37;97350.44;;;4.72;99.19
82305;BME280;71914;47.382;8.168;2024-03-17T04:51:03;97349.13;;;4.65;98.91
82305;BME280;71914;47.382;8.168;2024-03-17T04:53:28;97344.75;;;4.65;99.09
82305;BME280;71914;47.382;8.168;2024-03-17T04:55:59;97351.38;;;4.71;99.21
82305;BME280;71914;47.382;8.168;2024-03-17T04:58:24;97345.44;;;4.69;98.99
82305;BME280;71914;47.382;8.168;2024-03-17T05:00:50;97340.56;;;4.63;99.14
82305;BME280;71914;47.382;8.168;2024-03-17T05:03:15;97349.13;;;4.65;98.96
82305;BME280;71914;47.382;8.168;2024-03-17T05:05:41;97341.69;;;4.59;98.30
82305;BME280;71914;47.382;8.168;2024-03-17T05:08:06;97345.59;;;4.50;98.18
82305;BME280;71914;47.382;8.168;2024-03-17T05:10:31;97349.56;;;4.41;98.43
82305;BME280;71914;47.382;8.168;2024-03-17T05:12:57;97349.72;;;4.38;98.47
82305;BME280;71914;47.382;8.168;2024-03-17T05:15:22;97347.53;;;4.30;98.49
82305;BME280;71914;47.382;8.168;2024-03-17T05:17:48;97350.38;;;4.26;98.63
82305;BME280;71914;47.382;8.168;2024-03-17T05:20:13;97347.88;;;4.24;98.90
82305;BME280;71914;47.382;8.168;2024-03-17T05:22:38;97348.53;;;4.28;99.30
82305;BME280;71914;47.382;8.168;2024-03-17T05:25:04;97346.94;;;4.25;99.56
82305;BME280;71914;47.382;8.168;2024-03-17T05:27:30;97344.50;;;4.22;99.78
82305;BME280;71914;47.382;8.168;2024-03-17T05:29:56;97342.59;;;4.26;100.00
82305;BME280;71914;47.382;8.168;2024-03-17T05:32:21;97345.09;;;4.27;100.00
82305;BME280;71914;47.382;8.168;2024-03-17T05:34:46;97345.09;;;4.27;100.00
82305;BME280;71914;47.382;8.168;2024-03-17T05:37:12;97342.25;;;4.32;100.00
82305;BME280;71914;47.382;8.168;2024-03-17T05:39:37;97353.66;;;4.29;100.00
82305;BME280;71914;47.382;8.168;2024-03-17T05:42:03;97346.63;;;4.31;100.00
82305;BME280;71914;47.382;8.168;2024-03-17T05:44:29;97350.97;;;4.31;100.00
82305;BME280;71914;47.382;8.168;2024-03-17T05:46:58;97358.59;;;4.34;100.00
82305;BME280;71914;47.382;8.168;2024-03-17T05:49:24;97354.06;;;4.38;100.00
82305;BME280;71914;47.382;8.168;2024-03-17T05:51:50;97359.69;;;4.46;99.44
82305;BME280;71914;47.382;8.168;2024-03-17T05:54:15;97365.88;;;4.43;98.26
82305;BME280;71914;47.382;8.168;2024-03-17T05:56:41;97366.16;;;4.05;99.15
82305;BME280;71914;47.382;8.168;2024-03-17T05:59:06;97377.72;;;3.82;99.43
82305;BME280;71914;47.382;8.168;2024-03-17T06:01:32;97369.31;;;3.78;100.00
82305;BME280;71914;47.382;8.168;2024-03-17T06:03:57;97370.25;;;3.93;100.00
82305;BME280;71914;47.382;8.168;2024-03-17T06:06:23;97370.03;;;4.14;100.00
82305;BME280;71914;47.382;8.168;2024-03-17T06:08:48;97371.97;;;4.26;100.00
82305;BME280;71914;47.382;8.168;2024-03-17T06:11:14;97372.56;;;4.31;100.00
82305;BME280;71914;47.382;8.168;2024-03-17T06:13:40;97379.16;;;4.37;100.00
82305;BME280;71914;47.382;8.168;2024-03-17T06:16:05;97371.22;;;4.24;100.00
82305;BME280;71914;47.382;8.168;2024-03-17T06:18:30;97376.81;;;4.17;100.00
82305;BME280;71914;47.382;8.168;2024-03-17T06:20:56;97378.31;;;4.21;100.00
82305;BME280;71914;47.382;8.168;2024-03-17T06:23:24;97368.75;;;4.05;100.00
82305;BME280;71914;47.382;8.168;2024-03-17T06:25:52;97372.06;;;4.25;100.00
82305;BME280;71914;47.382;8.168;2024-03-17T06:28:19;97374.56;;;4.42;100.00
82305;BME280;71914;47.382;8.168;2024-03-17T06:30:46;97368.88;;;4.36;100.00
82305;BME280;71914;47.382;8.168;2024-03-17T06:33:19;97382.41;;;4.09;100.00
82305;BME280;71914;47.382;8.168;2024-03-17T06:35:45;97369.03;;;4.01;100.00
82305;BME280;71914;47.382;8.168;2024-03-17T06:38:11;97378.50;;;3.84;100.00
82305;BME280;71914;47.382;8.168;2024-03-17T06:40:37;97385.59;;;3.80;100.00
82305;BME280;71914;47.382;8.168;2024-03-17T06:43:03;97378.22;;;3.73;100.00
82305;BME280;71914;47.382;8.168;2024-03-17T06:45:29;97379.84;;;3.91;100.00
82305;BME280;71914;47.382;8.168;2024-03-17T06:47:54;97382.59;;;4.22;100.00
82305;BME280;71914;47.382;8.168;2024-03-17T06:50:21;97372.06;;;4.41;100.00
82305;BME280;71914;47.382;8.168;2024-03-17T06:52:46;97375.34;;;4.28;100.00
82305;BME280;71914;47.382;8.168;2024-03-17T06:55:12;97370.75;;;4.00;100.00
82305;BME280;71914;47.382;8.168;2024-03-17T06:57:37;97371.03;;;3.78;100.00
82305;BME280;71914;47.382;8.168;2024-03-17T07:00:03;97369.56;;;3.90;100.00
82305;BME280;71914;47.382;8.168;2024-03-17T07:02:31;97368.34;;;3.97;100.00
82305;BME280;71914;47.382;8.168;2024-03-17T07:04:57;97369.34;;;3.94;100.00
82305;BME280;71914;47.382;8.168;2024-03-17T07:07:23;97368.59;;;4.08;100.00
82305;BME280;71914;47.382;8.168;2024-03-17T07:09:48;97360.69;;;4.43;100.00
82305;BME280;71914;47.382;8.168;2024-03-17T07:12:14;97364.88;;;4.30;100.00
82305;BME280;71914;47.382;8.168;2024-03-17T07:14:39;97363.16;;;4.13;100.00
82305;BME280;71914;47.382;8.168;2024-03-17T07:17:04;97362.56;;;4.08;100.00
82305;BME280;71914;47.382;8.168;2024-03-17T07:19:30;97363.75;;;4.18;100.00
82305;BME280;71914;47.382;8.168;2024-03-17T07:21:59;97365.50;;;4.18;100.00
82305;BME280;71914;47.382;8.168;2024-03-17T07:24:24;97368.47;;;4.43;100.00
82305;BME280;71914;47.382;8.168;2024-03-17T07:26:50;97373.00;;;4.72;100.00
82305;BME280;71914;47.382;8.168;2024-03-17T07:29:16;97382.50;;;5.03;100.00
82305;BME280;71914;47.382;8.168;2024-03-17T07:31:42;97378.78;;;4.77;100.00
82305;BME280;71914;47.382;8.168;2024-03-17T07:34:07;97374.66;;;4.41;100.00
82305;BME280;71914;47.382;8.168;2024-03-17T07:36:32;97382.13;;;4.47;100.00
82305;BME280;71914;47.382;8.168;2024-03-17T07:38:58;97377.25;;;4.41;100.00
82305;BME280;71914;47.382;8.168;2024-03-17T07:41:23;97378.03;;;4.43;100.00
82305;BME280;71914;47.382;8.168;2024-03-17T07:43:49;97379.19;;;4.69;100.00
82305;BME280;71914;47.382;8.168;2024-03-17T07:46:15;97380.50;;;4.76;100.00
82305;BME280;71914;47.382;8.168;2024-03-17T07:48:42;97382.16;;;4.93;100.00
82305;BME280;71914;47.382;8.168;2024-03-17T07:51:10;97388.63;;;5.02;100.00
82305;BME280;71914;47.382;8.168;2024-03-17T07:53:37;97389.78;;;5.12;100.00
82305;BME280;71914;47.382;8.168;2024-03-17T07:56:11;97393.63;;;5.05;100.00
82305;BME280;71914;47.382;8.168;2024-03-17T07:58:38;97386.81;;;5.19;100.00
82305;BME280;71914;47.382;8.168;2024-03-17T08:01:22;97381.94;;;5.28;100.00
82305;BME280;71914;47.382;8.168;2024-03-17T08:03:47;97383.88;;;5.25;100.00
82305;BME280;71914;47.382;8.168;2024-03-17T08:06:21;97382.63;;;5.16;100.00
82305;BME280;71914;47.382;8.168;2024-03-17T08:08:47;97383.72;;;5.12;100.00
82305;BME280;71914;47.382;8.168;2024-03-17T08:11:12;97386.06;;;5.17;100.00
82305;BME280;71914;47.382;8.168;2024-03-17T08:13:38;97387.59;;;5.05;100.00
82305;BME280;71914;47.382;8.168;2024-03-17T08:16:06;97385.53;;;5.26;100.00
82305;BME280;71914;47.382;8.168;2024-03-17T08:18:32;97387.72;;;5.34;100.00
82305;BME280;71914;47.382;8.168;2024-03-17T08:20:59;97379.50;;;5.56;100.00
82305;BME280;71914;47.382;8.168;2024-03-17T08:23:25;97380.22;;;5.58;100.00
82305;BME280;71914;47.382;8.168;2024-03-17T08:25:57;97376.53;;;5.62;100.00
82305;BME280;71914;47.382;8.168;2024-03-17T08:28:24;97383.75;;;5.57;100.00
82305;BME280;71914;47.382;8.168;2024-03-17T08:30:51;97380.09;;;5.75;100.00
82305;BME280;71914;47.382;8.168;2024-03-17T08:33:17;97387.91;;;5.90;100.00
82305;BME280;71914;47.382;8.168;2024-03-17T08:35:55;97390.81;;;6.00;100.00
82305;BME280;71914;47.382;8.168;2024-03-17T08:38:21;97376.31;;;6.10;100.00
82305;BME280;71914;47.382;8.168;2024-03-17T08:40:49;97385.94;;;6.37;100.00
82305;BME280;71914;47.382;8.168;2024-03-17T08:43:14;97387.59;;;6.52;100.00
82305;BME280;71914;47.382;8.168;2024-03-17T08:45:40;97382.59;;;6.49;98.01
82305;BME280;71914;47.382;8.168;2024-03-17T08:48:06;97381.75;;;6.48;97.66
82305;BME280;71914;47.382;8.168;2024-03-17T08:50:31;97378.97;;;6.52;97.19
82305;BME280;71914;47.382;8.168;2024-03-17T08:52:59;97382.69;;;6.62;97.60
82305;BME280;71914;47.382;8.168;2024-03-17T08:55:24;97381.44;;;6.68;98.51
82305;BME280;71914;47.382;8.168;2024-03-17T08:57:50;97377.91;;;6.69;98.65
82305;BME280;71914;47.382;8.168;2024-03-17T09:00:15;97378.16;;;6.78;98.62
82305;BME280;71914;47.382;8.168;2024-03-17T09:02:41;97371.75;;;6.97;98.00
82305;BME280;71914;47.382;8.168;2024-03-17T09:05:07;97368.44;;;6.95;95.86
82305;BME280;71914;47.382;8.168;2024-03-17T09:07:32;97356.72;;;6.88;96.21
82305;BME280;71914;47.382;8.168;2024-03-17T09:09:58;97361.97;;;7.01;97.11
82305;BME280;71914;47.382;8.168;2024-03-17T09:12:24;97364.63;;;7.13;99.32
82305;BME280;71914;47.382;8.168;2024-03-17T09:14:50;97359.88;;;7.33;99.78
82305;BME280;71914;47.382;8.168;2024-03-17T09:17:15;97362.19;;;7.51;99.13
82305;BME280;71914;47.382;8.168;2024-03-17T09:19:40;97360.56;;;7.75;97.88
82305;BME280;71914;47.382;8.168;2024-03-17T09:22:06;97363.28;;;7.87;97.43
82305;BME280;71914;47.382;8.168;2024-03-17T09:24:31;97356.69;;;7.94;96.22
82305;BME280;71914;47.382;8.168;2024-03-17T09:26:57;97361.78;;;7.82;93.49
82305;BME280;71914;47.382;8.168;2024-03-17T09:29:22;97344.78;;;7.77;94.81
82305;BME280;71914;47.382;8.168;2024-03-17T09:31:49;97359.50;;;7.91;93.15
82305;BME280;71914;47.382;8.168;2024-03-17T09:34:15;97353.97;;;7.95;93.17
82305;BME280;71914;47.382;8.168;2024-03-17T09:36:40;97352.50;;;7.78;91.78
82305;BME280;71914;47.382;8.168;2024-03-17T09:39:05;97357.72;;;7.65;91.83
82305;BME280;71914;47.382;8.168;2024-03-17T09:41:31;97359.38;;;7.54;92.74
82305;BME280;71914;47.382;8.168;2024-03-17T09:43:57;97355.13;;;7.53;94.08
82305;BME280;71914;47.382;8.168;2024-03-17T09:46:24;97360.13;;;7.56;93.80
82305;BME280;71914;47.382;8.168;2024-03-17T09:48:51;97351.25;;;7.58;93.09
82305;BME280;71914;47.382;8.168;2024-03-17T09:51:21;97353.13;;;7.69;93.38
82305;BME280;71914;47.382;8.168;2024-03-17T09:53:47;97348.25;;;7.64;92.94
82305;BME280;71914;47.382;8.168;2024-03-17T09:56:15;97345.94;;;7.60;93.91
82305;BME280;71914;47.382;8.168;2024-03-17T09:58:42;97339.66;;;7.50;92.82
82305;BME280;71914;47.382;8.168;2024-03-17T10:01:07;97337.16;;;7.61;95.19
82305;BME280;71914;47.382;8.168;2024-03-17T10:03:46;97337.06;;;7.62;93.56
82305;BME280;71914;47.382;8.168;2024-03-17T10:06:15;97340.63;;;7.74;92.53
82305;BME280;71914;47.382;8.168;2024-03-17T10:11:06;97343.97;;;7.89;93.81
82305;BME280;71914;47.382;8.168;2024-03-17T10:13:32;97345.72;;;8.02;95.13
82305;BME280;71914;47.382;8.168;2024-03-17T10:15:57;97351.97;;;8.12;93.78
82305;BME280;71914;47.382;8.168;2024-03-17T10:18:23;97348.94;;;8.18;92.31
82305;BME280;71914;47.382;8.168;2024-03-17T10:20:49;97360.00;;;8.09;92.21
82305;BME280;71914;47.382;8.168;2024-03-17T10:23:21;97357.72;;;8.04;91.63
82305;BME280;71914;47.382;8.168;2024-03-17T10:25:49;97367.00;;;8.08;92.72
82305;BME280;71914;47.382;8.168;2024-03-17T10:28:16;97364.09;;;8.13;93.12
82305;BME280;71914;47.382;8.168;2024-03-17T10:30:56;97361.78;;;8.21;90.67
82305;BME280;71914;47.382;8.168;2024-03-17T10:33:25;97364.59;;;8.18;91.40
82305;BME280;71914;47.382;8.168;2024-03-17T10:35:58;97369.72;;;8.20;91.83
82305;BME280;71914;47.382;8.168;2024-03-17T10:38:25;97364.69;;;8.17;89.48
82305;BME280;71914;47.382;8.168;2024-03-17T10:40:50;97367.31;;;8.17;90.08
82305;BME280;71914;47.382;8.168;2024-03-17T10:43:16;97368.97;;;8.18;88.30
82305;BME280;71914;47.382;8.168;2024-03-17T10:45:42;97362.59;;;8.22;89.30
82305;BME280;71914;47.382;8.168;2024-03-17T10:48:08;97364.06;;;8.26;90.25
82305;BME280;71914;47.382;8.168;2024-03-17T10:50:39;97365.41;;;8.31;89.88
82305;BME280;71914;47.382;8.168;2024-03-17T10:53:07;97365.94;;;8.37;88.57
82305;BME280;71914;47.382;8.168;2024-03-17T10:55:46;97360.88;;;8.59;87.22
82305;BME280;71914;47.382;8.168;2024-03-17T10:58:33;97367.69;;;8.49;86.49
82305;BME280;71914;47.382;8.168;2024-03-17T11:01:01;97370.19;;;8.51;85.16
82305;BME280;71914;47.382;8.168;2024-03-17T11:03:33;97374.47;;;8.39;85.34
82305;BME280;71914;47.382;8.168;2024-03-17T11:06:02;97358.50;;;8.43;87.98
82305;BME280;71914;47.382;8.168;2024-03-17T11:08:30;97365.19;;;8.47;87.02
82305;BME280;71914;47.382;8.168;2024-03-17T11:10:56;97354.94;;;8.44;85.35
82305;BME280;71914;47.382;8.168;2024-03-17T11:13:29;97352.84;;;8.50;84.86
82305;BME280;71914;47.382;8.168;2024-03-17T11:15:56;97358.91;;;8.63;86.47
82305;BME280;71914;47.382;8.168;2024-03-17T11:23:42;97345.81;;;8.87;84.72
82305;BME280;71914;47.382;8.168;2024-03-17T11:26:08;97333.94;;;8.83;86.24
82305;BME280;71914;47.382;8.168;2024-03-17T11:31:31;97340.66;;;8.99;84.08
82305;BME280;71914;47.382;8.168;2024-03-17T11:33:57;97338.31;;;9.07;83.58
82305;BME280;71914;47.382;8.168;2024-03-17T11:38:58;97339.81;;;8.98;84.22
82305;BME280;71914;47.382;8.168;2024-03-17T11:44:32;97340.28;;;8.92;84.84
82305;BME280;71914;47.382;8.168;2024-03-17T11:47:00;97342.41;;;8.98;85.04
82305;BME280;71914;47.382;8.168;2024-03-17T11:49:39;97326.25;;;8.93;83.16
82305;BME280;71914;47.382;8.168;2024-03-17T11:52:15;97335.19;;;9.02;82.76
82305;BME280;71914;47.382;8.168;2024-03-17T11:54:45;97331.75;;;9.01;82.93
82305;BME280;71914;47.382;8.168;2024-03-17T11:57:12;97329.47;;;8.96;82.32
82305;BME280;71914;47.382;8.168;2024-03-17T11:59:39;97325.78;;;8.99;82.25
82305;BME280;71914;47.382;8.168;2024-03-17T12:02:20;97331.28;;;9.07;83.74
82305;BME280;71914;47.382;8.168;2024-03-17T12:04:46;97329.16;;;9.12;82.77
82305;BME280;71914;47.382;8.168;2024-03-17T12:07:14;97325.84;;;9.10;81.77
82305;BME280;71914;47.382;8.168;2024-03-17T12:09:41;97326.00;;;9.20;83.62
82305;BME280;71914;47.382;8.168;2024-03-17T12:12:14;97321.00;;;9.17;82.74
82305;BME280;71914;47.382;8.168;2024-03-17T12:14:41;97338.16;;;9.33;80.83
82305;BME280;71914;47.382;8.168;2024-03-17T12:17:08;97324.72;;;9.26;81.03
82305;BME280;71914;47.382;8.168;2024-03-17T12:19:34;97314.84;;;9.29;81.13
82305;BME280;71914;47.382;8.168;2024-03-17T12:22:02;97316.47;;;9.19;80.34
82305;BME280;71914;47.382;8.168;2024-03-17T12:24:29;97311.03;;;9.34;79.14
82305;BME280;71914;47.382;8.168;2024-03-17T12:26:56;97310.84;;;9.37;79.47
82305;BME280;71914;47.382;8.168;2024-03-17T12:32:07;97306.66;;;9.45;81.27
82305;BME280;71914;47.382;8.168;2024-03-17T12:34:35;97302.41;;;9.56;81.15
82305;BME280;71914;47.382;8.168;2024-03-17T12:37:01;97300.06;;;9.75;79.36
82305;BME280;71914;47.382;8.168;2024-03-17T12:39:28;97294.34;;;9.82;79.20
82305;BME280;71914;47.382;8.168;2024-03-17T12:42:14;97282.69;;;9.74;78.40
82305;BME280;71914;47.382;8.168;2024-03-17T12:44:46;97277.81;;;9.70;81.11
82305;BME280;71914;47.382;8.168;2024-03-17T12:47:22;97283.53;;;9.86;79.34
82305;BME280;71914;47.382;8.168;2024-03-17T12:49:49;97273.28;;;9.83;79.91
82305;BME280;71914;47.382;8.168;2024-03-17T12:52:20;97265.56;;;9.93;81.67
82305;BME280;71914;47.382;8.168;2024-03-17T12:55:05;97261.50;;;10.00;82.75
82305;BME280;71914;47.382;8.168;2024-03-17T12:57:51;97255.28;;;10.24;79.30
82305;BME280;71914;47.382;8.168;2024-03-17T13:00:35;97257.22;;;10.10;79.08
82305;BME280;71914;47.382;8.168;2024-03-17T13:03:02;97253.78;;;10.10;80.78
82305;BME280;71914;47.382;8.168;2024-03-17T13:05:28;97249.97;;;10.03;81.23
82305;BME280;71914;47.382;8.168;2024-03-17T13:07:54;97248.53;;;9.99;81.52
82305;BME280;71914;47.382;8.168;2024-03-17T13:10:22;97235.19;;;10.02;81.87
82305;BME280;71914;47.382;8.168;2024-03-17T13:12:48;97234.84;;;10.06;82.39
82305;BME280;71914;47.382;8.168;2024-03-17T13:15:15;97238.88;;;9.99;83.06
82305;BME280;71914;47.382;8.168;2024-03-17T13:17:42;97241.50;;;10.10;83.03
82305;BME280;71914;47.382;8.168;2024-03-17T13:20:12;97247.94;;;10.06;82.57
82305;BME280;71914;47.382;8.168;2024-03-17T13:22:38;97233.41;;;10.13;83.25
82305;BME280;71914;47.382;8.168;2024-03-17T13:25:08;97234.25;;;10.14;83.00
82305;BME280;71914;47.382;8.168;2024-03-17T13:27:33;97224.91;;;10.33;83.52
82305;BME280;71914;47.382;8.168;2024-03-17T13:29:59;97221.25;;;10.35;82.76
82305;BME280;71914;47.382;8.168;2024-03-17T13:32:25;97217.91;;;10.66;84.05